sensor_id;sensor_type;location;lat;lon;timestamp;P1;durP1;ratioP1;P2;durP2;ratioP2
11568;SDS011;5840;46.894;15.542;2022-10-04T00:00:58;5.33;;;3.93;;
11568;SDS011;5840;46.894;15.542;2022-10-04T00:03:30;4.60;;;4.20;;
11568;SDS011;5840;46.894;15.542;2022-10-04T00:05:59;5.23;;;4.73;;
11568;SDS011;5840;46.894;15.542;2022-10-04T00:08:29;4.90;;;4.47;;
11568;SDS011;5840;46.894;15.542;2022-10-04T00:11:04;4.30;;;3.90;;
11568;SDS011;5840;46.894;15.542;2022-10-04T00:13:33;4.30;;;4.00;;
11568;SDS011;5840;46.894;15.542;2022-10-04T00:16:04;4.97;;;4.50;;
11568;SDS011;5840;46.894;15.542;2022-10-04T00:18:37;5.93;;;4.37;;
11568;SDS011;5840;46.894;15.542;2022-10-04T00:21:06;4.57;;;4.17;;
11568;SDS011;5840;46.894;15.542;2022-10-04T00:23:43;4.80;;;4.40;;
11568;SDS011;5840;46.894;15.542;2022-10-04T00:26:13;6.27;;;4.10;;
11568;SDS011;5840;46.894;15.542;2022-10-04T00:28:55;4.57;;;4.17;;
11568;SDS011;5840;46.894;15.542;2022-10-04T00:31:24;4.50;;;4.10;;
11568;SDS011;5840;46.894;15.542;2022-10-04T00:33:53;5.73;;;4.37;;
11568;SDS011;5840;46.894;15.542;2022-10-04T00:36:30;4.70;;;4.30;;
11568;SDS011;5840;46.894;15.542;2022-10-04T00:42:09;4.50;;;4.10;;
11568;SDS011;5840;46.894;15.542;2022-10-04T00:44:56;4.63;;;4.23;;
11568;SDS011;5840;46.894;15.542;2022-10-04T00:47:29;3.77;;;3.57;;
11568;SDS011;5840;46.894;15.542;2022-10-04T00:50:02;4.40;;;4.10;;
11568;SDS011;5840;46.894;15.542;2022-10-04T00:52:41;4.70;;;4.30;;
11568;SDS011;5840;46.894;15.542;2022-10-04T00:55:17;4.30;;;3.90;;
11568;SDS011;5840;46.894;15.542;2022-10-04T00:57:49;4.40;;;4.00;;
11568;SDS011;5840;46.894;15.542;2022-10-04T01:00:20;4.63;;;4.23;;
11568;SDS011;5840;46.894;15.542;2022-10-04T01:02:50;4.80;;;4.30;;
11568;SDS011;5840;46.894;15.542;2022-10-04T01:05:22;4.23;;;3.83;;
11568;SDS011;5840;46.894;15.542;2022-10-04T01:07:54;4.57;;;4.10;;
11568;SDS011;5840;46.894;15.542;2022-10-04T01:10:29;5.73;;;4.40;;
11568;SDS011;5840;46.894;15.542;2022-10-04T01:12:59;4.47;;;4.10;;
11568;SDS011;5840;46.894;15.542;2022-10-04T01:15:35;4.77;;;4.37;;
11568;SDS011;5840;46.894;15.542;2022-10-04T01:18:11;4.67;;;4.27;;
11568;SDS011;5840;46.894;15.542;2022-10-04T01:20:47;4.70;;;4.30;;
11568;SDS011;5840;46.894;15.542;2022-10-04T01:23:33;4.60;;;4.30;;
11568;SDS011;5840;46.894;15.542;2022-10-04T01:26:05;5.63;;;4.27;;
11568;SDS011;5840;46.894;15.542;2022-10-04T01:28:47;4.90;;;4.50;;
11568;SDS011;5840;46.894;15.542;2022-10-04T01:31:14;4.97;;;3.90;;
11568;SDS011;5840;46.894;15.542;2022-10-04T01:33:41;4.53;;;4.23;;
11568;SDS011;5840;46.894;15.542;2022-10-04T01:36:08;5.20;;;4.80;;
11568;SDS011;5840;46.894;15.542;2022-10-04T01:38:36;4.73;;;4.43;;
11568;SDS011;5840;46.894;15.542;2022-10-04T01:41:04;5.10;;;4.70;;
11568;SDS011;5840;46.894;15.542;2022-10-04T01:43:34;5.30;;;4.80;;
11568;SDS011;5840;46.894;15.542;2022-10-04T01:46:03;7.17;;;4.90;;
11568;SDS011;5840;46.894;15.542;2022-10-04T01:48:35;5.00;;;4.37;;
11568;SDS011;5840;46.894;15.542;2022-10-04T01:51:04;4.80;;;4.50;;
11568;SDS011;5840;46.894;15.542;2022-10-04T01:53:40;5.53;;;4.77;;
11568;SDS011;5840;46.894;15.542;2022-10-04T01:56:14;5.60;;;5.10;;
11568;SDS011;5840;46.894;15.542;2022-10-04T01:58:46;5.23;;;4.73;;
11568;SDS011;5840;46.894;15.542;2022-10-04T02:01:15;4.67;;;4.37;;
11568;SDS011;5840;46.894;15.542;2022-10-04T02:03:50;4.77;;;4.37;;
11568;SDS011;5840;46.894;15.542;2022-10-04T02:06:22;5.87;;;5.23;;
11568;SDS011;5840;46.894;15.542;2022-10-04T02:08:52;4.73;;;4.23;;
11568;SDS011;5840;46.894;15.542;2022-10-04T02:11:22;5.43;;;4.63;;
11568;SDS011;5840;46.894;15.542;2022-10-04T02:13:55;4.87;;;4.47;;
11568;SDS011;5840;46.894;15.542;2022-10-04T02:16:23;5.00;;;4.60;;
11568;SDS011;5840;46.894;15.542;2022-10-04T02:18:50;5.67;;;4.33;;
11568;SDS011;5840;46.894;15.542;2022-10-04T02:21:19;5.03;;;4.63;;
11568;SDS011;5840;46.894;15.542;2022-10-04T02:23:48;5.23;;;4.83;;
11568;SDS011;5840;46.894;15.542;2022-10-04T02:26:17;5.87;;;4.77;;
11568;SDS011;5840;46.894;15.542;2022-10-04T02:28:45;4.83;;;4.43;;
11568;SDS011;5840;46.894;15.542;2022-10-04T02:31:13;4.57;;;4.27;;
11568;SDS011;5840;46.894;15.542;2022-10-04T02:34:03;4.80;;;4.50;;
11568;SDS011;5840;46.894;15.542;2022-10-04T02:36:30;4.53;;;4.13;;
11568;SDS011;5840;46.894;15.542;2022-10-04T02:38:59;4.90;;;4.43;;
11568;SDS011;5840;46.894;15.542;2022-10-04T02:41:31;6.47;;;4.53;;
11568;SDS011;5840;46.894;15.542;2022-10-04T02:44:04;4.60;;;4.30;;
11568;SDS011;5840;46.894;15.542;2022-10-04T02:46:39;4.97;;;4.60;;
11568;SDS011;5840;46.894;15.542;2022-10-04T02:49:14;5.10;;;4.70;;
11568;SDS011;5840;46.894;15.542;2022-10-04T02:51:45;4.53;;;4.23;;
11568;SDS011;5840;46.894;15.542;2022-10-04T02:54:20;5.60;;;5.10;;
11568;SDS011;5840;46.894;15.542;2022-10-04T02:56:55;5.20;;;4.70;;
11568;SDS011;5840;46.894;15.542;2022-10-04T02:59:23;5.20;;;4.70;;
11568;SDS011;5840;46.894;15.542;2022-10-04T03:01:51;5.20;;;4.80;;
11568;SDS011;5840;46.894;15.542;2022-10-04T03:04:20;6.27;;;4.63;;
11568;SDS011;5840;46.894;15.542;2022-10-04T03:06:50;5.10;;;4.70;;
11568;SDS011;5840;46.894;15.542;2022-10-04T03:09:20;4.83;;;4.27;;
11568;SDS011;5840;46.894;15.542;2022-10-04T03:11:48;5.47;;;4.77;;
11568;SDS011;5840;46.894;15.542;2022-10-04T03:14:18;5.07;;;4.73;;
11568;SDS011;5840;46.894;15.542;2022-10-04T03:16:48;5.03;;;4.63;;
11568;SDS011;5840;46.894;15.542;2022-10-04T03:19:18;5.00;;;4.60;;
11568;SDS011;5840;46.894;15.542;2022-10-04T03:21:48;5.03;;;4.70;;
11568;SDS011;5840;46.894;15.542;2022-10-04T03:24:18;7.80;;;5.43;;
11568;SDS011;5840;46.894;15.542;2022-10-04T03:26:49;5.13;;;4.70;;
11568;SDS011;5840;46.894;15.542;2022-10-04T03:29:20;5.57;;;5.07;;
11568;SDS011;5840;46.894;15.542;2022-10-04T03:31:49;6.67;;;5.10;;
11568;SDS011;5840;46.894;15.542;2022-10-04T03:34:18;5.87;;;4.83;;
11568;SDS011;5840;46.894;15.542;2022-10-04T03:36:48;5.93;;;5.53;;
11568;SDS011;5840;46.894;15.542;2022-10-04T03:39:18;7.30;;;5.60;;
11568;SDS011;5840;46.894;15.542;2022-10-04T03:41:52;5.87;;;5.37;;
11568;SDS011;5840;46.894;15.542;2022-10-04T03:44:21;6.77;;;5.83;;
11568;SDS011;5840;46.894;15.542;2022-10-04T03:46:49;6.30;;;5.70;;
11568;SDS011;5840;46.894;15.542;2022-10-04T03:49:16;7.47;;;5.63;;
11568;SDS011;5840;46.894;15.542;2022-10-04T03:51:50;6.80;;;6.17;;
11568;SDS011;5840;46.894;15.542;2022-10-04T03:54:19;7.30;;;6.80;;
11568;SDS011;5840;46.894;15.542;2022-10-04T03:56:52;7.33;;;6.63;;
11568;SDS011;5840;46.894;15.542;2022-10-04T03:59:22;7.03;;;6.37;;
11568;SDS011;5840;46.894;15.542;2022-10-04T04:01:55;7.67;;;6.87;;
11568;SDS011;5840;46.894;15.542;2022-10-04T04:04:34;8.30;;;7.07;;
11568;SDS011;5840;46.894;15.542;2022-10-04T04:07:09;10.00;;;6.97;;
11568;SDS011;5840;46.894;15.542;2022-10-04T04:09:40;7.00;;;6.40;;
11568;SDS011;5840;46.894;15.542;2022-10-04T04:12:10;7.87;;;7.17;;
11568;SDS011;5840;46.894;15.542;2022-10-04T04:14:43;7.20;;;6.50;;
11568;SDS011;5840;46.894;15.542;2022-10-04T04:17:27;10.47;;;8.53;;
11568;SDS011;5840;46.894;15.542;2022-10-04T04:20:03;10.60;;;9.47;;
11568;SDS011;5840;46.894;15.542;2022-10-04T04:22:40;9.53;;;8.73;;
11568;SDS011;5840;46.894;15.542;2022-10-04T04:25:11;8.80;;;7.90;;
11568;SDS011;5840;46.894;15.542;2022-10-04T04:27:41;8.77;;;7.87;;
11568;SDS011;5840;46.894;15.542;2022-10-04T04:30:14;8.13;;;7.37;;
11568;SDS011;5840;46.894;15.542;2022-10-04T04:32:43;7.37;;;6.67;;
11568;SDS011;5840;46.894;15.542;2022-10-04T04:35:20;7.30;;;6.70;;
11568;SDS011;5840;46.894;15.542;2022-10-04T04:38:00;7.50;;;6.83;;
11568;SDS011;5840;46.894;15.542;2022-10-04T04:40:29;7.03;;;6.40;;
11568;SDS011;5840;46.894;15.542;2022-10-04T04:42:56;6.60;;;6.00;;
11568;SDS011;5840;46.894;15.542;2022-10-04T04:45:28;6.07;;;5.57;;
11568;SDS011;5840;46.894;15.542;2022-10-04T04:47:57;6.97;;;6.27;;
11568;SDS011;5840;46.894;15.542;2022-10-04T04:50:29;6.77;;;6.17;;
11568;SDS011;5840;46.894;15.542;2022-10-04T04:52:59;7.50;;;6.77;;
11568;SDS011;5840;46.894;15.542;2022-10-04T04:55:32;7.03;;;6.33;;
11568;SDS011;5840;46.894;15.542;2022-10-04T04:58:02;7.10;;;6.50;;
11568;SDS011;5840;46.894;15.542;2022-10-04T05:00:34;7.37;;;6.73;;
11568;SDS011;5840;46.894;15.542;2022-10-04T05:03:04;7.40;;;6.80;;
11568;SDS011;5840;46.894;15.542;2022-10-04T05:05:33;7.60;;;6.90;;
11568;SDS011;5840;46.894;15.542;2022-10-04T05:08:09;7.40;;;6.63;;
11568;SDS011;5840;46.894;15.542;2022-10-04T05:10:40;7.87;;;7.07;;
11568;SDS011;5840;46.894;15.542;2022-10-04T05:13:10;7.00;;;6.40;;
11568;SDS011;5840;46.894;15.542;2022-10-04T05:15:40;7.50;;;6.80;;
11568;SDS011;5840;46.894;15.542;2022-10-04T05:18:12;7.10;;;6.50;;
11568;SDS011;5840;46.894;15.542;2022-10-04T05:20:48;6.47;;;5.97;;
11568;SDS011;5840;46.894;15.542;2022-10-04T05:23:17;7.60;;;6.90;;
11568;SDS011;5840;46.894;15.542;2022-10-04T05:25:45;7.83;;;7.13;;
11568;SDS011;5840;46.894;15.542;2022-10-04T05:28:13;8.43;;;7.63;;
11568;SDS011;5840;46.894;15.542;2022-10-04T05:30:46;7.30;;;6.70;;
11568;SDS011;5840;46.894;15.542;2022-10-04T05:33:23;6.57;;;6.07;;
11568;SDS011;5840;46.894;15.542;2022-10-04T05:36:17;8.67;;;7.20;;
11568;SDS011;5840;46.894;15.542;2022-10-04T05:38:58;7.90;;;7.20;;
11568;SDS011;5840;46.894;15.542;2022-10-04T05:41:31;7.73;;;7.03;;
11568;SDS011;5840;46.894;15.542;2022-10-04T05:44:15;9.50;;;6.80;;
11568;SDS011;5840;46.894;15.542;2022-10-04T05:46:49;8.80;;;7.03;;
11568;SDS011;5840;46.894;15.542;2022-10-04T05:49:17;7.23;;;6.60;;
11568;SDS011;5840;46.894;15.542;2022-10-04T05:51:48;8.27;;;6.87;;
11568;SDS011;5840;46.894;15.542;2022-10-04T05:54:17;7.17;;;6.17;;
11568;SDS011;5840;46.894;15.542;2022-10-04T05:59:58;7.50;;;6.90;;
11568;SDS011;5840;46.894;15.542;2022-10-04T06:02:39;7.03;;;6.40;;
11568;SDS011;5840;46.894;15.542;2022-10-04T06:05:32;7.37;;;6.60;;
11568;SDS011;5840;46.894;15.542;2022-10-04T06:08:12;7.87;;;7.20;;
11568;SDS011;5840;46.894;15.542;2022-10-04T06:10:47;7.67;;;7.07;;
11568;SDS011;5840;46.894;15.542;2022-10-04T06:13:33;7.60;;;6.83;;
11568;SDS011;5840;46.894;15.542;2022-10-04T06:16:17;8.67;;;7.27;;
11568;SDS011;5840;46.894;15.542;2022-10-04T06:21:59;6.57;;;5.97;;
11568;SDS011;5840;46.894;15.542;2022-10-04T06:24:33;7.90;;;6.40;;
11568;SDS011;5840;46.894;15.542;2022-10-04T06:27:04;7.03;;;6.43;;
11568;SDS011;5840;46.894;15.542;2022-10-04T06:29:37;9.77;;;6.97;;
11568;SDS011;5840;46.894;15.542;2022-10-04T06:32:23;8.60;;;7.80;;
11568;SDS011;5840;46.894;15.542;2022-10-04T06:35:16;8.50;;;7.57;;
11568;SDS011;5840;46.894;15.542;2022-10-04T06:44:00;7.20;;;6.60;;
11568;SDS011;5840;46.894;15.542;2022-10-04T06:46:39;6.43;;;5.73;;
11568;SDS011;5840;46.894;15.542;2022-10-04T06:52:05;7.00;;;6.30;;
11568;SDS011;5840;46.894;15.542;2022-10-04T06:55:03;6.57;;;5.97;;
11568;SDS011;5840;46.894;15.542;2022-10-04T06:58:06;6.53;;;6.03;;
11568;SDS011;5840;46.894;15.542;2022-10-04T07:00:50;6.43;;;5.87;;
11568;SDS011;5840;46.894;15.542;2022-10-04T07:03:24;6.30;;;5.80;;
11568;SDS011;5840;46.894;15.542;2022-10-04T07:05:56;6.83;;;6.17;;
11568;SDS011;5840;46.894;15.542;2022-10-04T07:08:29;6.50;;;5.90;;
11568;SDS011;5840;46.894;15.542;2022-10-04T07:11:05;6.43;;;5.90;;
11568;SDS011;5840;46.894;15.542;2022-10-04T07:13:41;6.70;;;5.70;;
11568;SDS011;5840;46.894;15.542;2022-10-04T07:16:21;6.37;;;5.20;;
11568;SDS011;5840;46.894;15.542;2022-10-04T07:19:07;5.60;;;5.10;;
11568;SDS011;5840;46.894;15.542;2022-10-04T07:21:54;5.93;;;5.30;;
11568;SDS011;5840;46.894;15.542;2022-10-04T07:24:29;5.53;;;4.83;;
11568;SDS011;5840;46.894;15.542;2022-10-04T07:27:09;4.80;;;4.10;;
11568;SDS011;5840;46.894;15.542;2022-10-04T07:29:40;5.43;;;4.57;;
11568;SDS011;5840;46.894;15.542;2022-10-04T07:32:10;4.80;;;4.10;;
11568;SDS011;5840;46.894;15.542;2022-10-04T07:34:43;4.27;;;3.97;;
11568;SDS011;5840;46.894;15.542;2022-10-04T07:37:15;4.50;;;4.10;;
11568;SDS011;5840;46.894;15.542;2022-10-04T07:39:45;4.27;;;3.80;;
11568;SDS011;5840;46.894;15.542;2022-10-04T07:42:21;3.73;;;3.50;;
11568;SDS011;5840;46.894;15.542;2022-10-04T07:44:57;3.97;;;3.43;;
11568;SDS011;5840;46.894;15.542;2022-10-04T07:47:31;3.50;;;3.23;;
11568;SDS011;5840;46.894;15.542;2022-10-04T07:49:58;3.53;;;3.20;;
11568;SDS011;5840;46.894;15.542;2022-10-04T07:52:31;4.00;;;3.70;;
11568;SDS011;5840;46.894;15.542;2022-10-04T07:55:12;3.77;;;3.50;;
11568;SDS011;5840;46.894;15.542;2022-10-04T07:58:10;3.40;;;3.20;;
11568;SDS011;5840;46.894;15.542;2022-10-04T08:00:47;4.80;;;3.70;;
11568;SDS011;5840;46.894;15.542;2022-10-04T08:03:24;4.10;;;3.53;;
11568;SDS011;5840;46.894;15.542;2022-10-04T08:06:08;6.53;;;3.43;;
11568;SDS011;5840;46.894;15.542;2022-10-04T08:08:44;3.57;;;3.27;;
11568;SDS011;5840;46.894;15.542;2022-10-04T08:11:23;3.40;;;3.10;;
11568;SDS011;5840;46.894;15.542;2022-10-04T08:14:02;3.30;;;2.97;;
11568;SDS011;5840;46.894;15.542;2022-10-04T08:16:42;3.20;;;2.97;;
11568;SDS011;5840;46.894;15.542;2022-10-04T08:19:26;3.47;;;2.70;;
11568;SDS011;5840;46.894;15.542;2022-10-04T08:22:11;4.10;;;2.80;;
11568;SDS011;5840;46.894;15.542;2022-10-04T08:24:48;3.00;;;2.80;;
11568;SDS011;5840;46.894;15.542;2022-10-04T08:27:27;4.93;;;2.77;;
11568;SDS011;5840;46.894;15.542;2022-10-04T08:30:38;3.30;;;3.00;;
11568;SDS011;5840;46.894;15.542;2022-10-04T08:33:23;2.60;;;2.43;;
11568;SDS011;5840;46.894;15.542;2022-10-04T08:36:04;2.87;;;2.57;;
11568;SDS011;5840;46.894;15.542;2022-10-04T08:38:41;2.67;;;2.53;;
11568;SDS011;5840;46.894;15.542;2022-10-04T08:41:22;2.37;;;2.20;;
11568;SDS011;5840;46.894;15.542;2022-10-04T08:47:42;2.87;;;2.60;;
11568;SDS011;5840;46.894;15.542;2022-10-04T08:56:57;2.60;;;2.40;;
11568;SDS011;5840;46.894;15.542;2022-10-04T09:05:38;3.40;;;2.27;;
11568;SDS011;5840;46.894;15.542;2022-10-04T09:11:33;3.13;;;2.90;;
11568;SDS011;5840;46.894;15.542;2022-10-04T09:14:43;4.07;;;2.83;;
11568;SDS011;5840;46.894;15.542;2022-10-04T09:17:28;3.03;;;2.70;;
11568;SDS011;5840;46.894;15.542;2022-10-04T09:20:08;3.53;;;2.63;;
11568;SDS011;5840;46.894;15.542;2022-10-04T09:22:48;5.30;;;2.90;;
11568;SDS011;5840;46.894;15.542;2022-10-04T09:25:25;2.80;;;2.27;;
11568;SDS011;5840;46.894;15.542;2022-10-04T09:28:16;2.63;;;2.43;;
11568;SDS011;5840;46.894;15.542;2022-10-04T09:31:00;2.90;;;2.50;;
11568;SDS011;5840;46.894;15.542;2022-10-04T09:33:47;4.10;;;2.53;;
11568;SDS011;5840;46.894;15.542;2022-10-04T09:36:29;3.87;;;2.50;;
11568;SDS011;5840;46.894;15.542;2022-10-04T09:39:28;2.40;;;2.20;;
11568;SDS011;5840;46.894;15.542;2022-10-04T09:42:19;2.80;;;2.60;;
11568;SDS011;5840;46.894;15.542;2022-10-04T09:48:24;2.70;;;2.50;;
11568;SDS011;5840;46.894;15.542;2022-10-04T09:51:01;3.10;;;2.53;;
11568;SDS011;5840;46.894;15.542;2022-10-04T09:53:40;3.93;;;2.20;;
11568;SDS011;5840;46.894;15.542;2022-10-04T09:59:36;3.90;;;2.37;;
11568;SDS011;5840;46.894;15.542;2022-10-04T10:05:42;4.20;;;2.20;;
11568;SDS011;5840;46.894;15.542;2022-10-04T10:08:22;3.57;;;2.37;;
11568;SDS011;5840;46.894;15.542;2022-10-04T10:10:54;2.27;;;2.07;;
11568;SDS011;5840;46.894;15.542;2022-10-04T10:16:54;2.53;;;1.77;;
11568;SDS011;5840;46.894;15.542;2022-10-04T10:19:37;2.00;;;1.90;;
11568;SDS011;5840;46.894;15.542;2022-10-04T10:22:22;2.40;;;2.20;;
11568;SDS011;5840;46.894;15.542;2022-10-04T10:25:17;2.00;;;1.90;;
11568;SDS011;5840;46.894;15.542;2022-10-04T10:27:58;2.47;;;1.93;;
11568;SDS011;5840;46.894;15.542;2022-10-04T10:30:44;1.90;;;1.80;;
11568;SDS011;5840;46.894;15.542;2022-10-04T10:33:34;2.43;;;1.77;;
11568;SDS011;5840;46.894;15.542;2022-10-04T10:36:27;3.10;;;1.90;;
11568;SDS011;5840;46.894;15.542;2022-10-04T10:42:11;1.73;;;1.63;;
11568;SDS011;5840;46.894;15.542;2022-10-04T10:44:52;2.27;;;1.60;;
11568;SDS011;5840;46.894;15.542;2022-10-04T10:47:37;2.33;;;2.10;;
11568;SDS011;5840;46.894;15.542;2022-10-04T10:50:25;2.20;;;2.00;;
11568;SDS011;5840;46.894;15.542;2022-10-04T10:53:38;2.30;;;2.10;;
11568;SDS011;5840;46.894;15.542;2022-10-04T10:56:49;1.50;;;1.50;;
11568;SDS011;5840;46.894;15.542;2022-10-04T11:05:39;6.10;;;2.37;;
11568;SDS011;5840;46.894;15.542;2022-10-04T11:08:44;2.27;;;2.17;;
11568;SDS011;5840;46.894;15.542;2022-10-04T11:11:49;2.60;;;1.90;;
11568;SDS011;5840;46.894;15.542;2022-10-04T11:21:03;2.57;;;2.00;;
11568;SDS011;5840;46.894;15.542;2022-10-04T11:24:11;2.37;;;1.97;;
11568;SDS011;5840;46.894;15.542;2022-10-04T11:26:55;2.27;;;2.03;;
11568;SDS011;5840;46.894;15.542;2022-10-04T11:32:38;1.83;;;1.60;;
11568;SDS011;5840;46.894;15.542;2022-10-04T11:41:38;2.10;;;1.83;;
11568;SDS011;5840;46.894;15.542;2022-10-04T11:44:33;2.03;;;1.80;;
11568;SDS011;5840;46.894;15.542;2022-10-04T11:47:26;2.30;;;1.80;;
11568;SDS011;5840;46.894;15.542;2022-10-04T11:53:05;2.83;;;1.80;;
11568;SDS011;5840;46.894;15.542;2022-10-04T11:58:59;3.33;;;2.10;;
11568;SDS011;5840;46.894;15.542;2022-10-04T12:02:05;2.00;;;1.90;;
11568;SDS011;5840;46.894;15.542;2022-10-04T12:05:19;1.73;;;1.63;;
11568;SDS011;5840;46.894;15.542;2022-10-04T12:08:04;3.73;;;1.57;;
11568;SDS011;5840;46.894;15.542;2022-10-04T12:10:45;2.07;;;1.97;;
11568;SDS011;5840;46.894;15.542;2022-10-04T12:13:38;1.70;;;1.60;;
11568;SDS011;5840;46.894;15.542;2022-10-04T12:22:37;2.40;;;2.20;;
11568;SDS011;5840;46.894;15.542;2022-10-04T12:25:43;2.73;;;2.20;;
11568;SDS011;5840;46.894;15.542;2022-10-04T12:31:24;2.20;;;2.00;;
11568;SDS011;5840;46.894;15.542;2022-10-04T12:33:59;1.80;;;1.70;;
11568;SDS011;5840;46.894;15.542;2022-10-04T12:36:46;1.70;;;1.60;;
11568;SDS011;5840;46.894;15.542;2022-10-04T12:39:29;1.97;;;1.80;;
11568;SDS011;5840;46.894;15.542;2022-10-04T12:42:10;1.93;;;1.70;;
11568;SDS011;5840;46.894;15.542;2022-10-04T12:45:00;1.83;;;1.73;;
11568;SDS011;5840;46.894;15.542;2022-10-04T12:47:46;1.70;;;1.60;;
11568;SDS011;5840;46.894;15.542;2022-10-04T12:50:38;3.70;;;1.77;;
11568;SDS011;5840;46.894;15.542;2022-10-04T12:53:16;1.70;;;1.60;;
11568;SDS011;5840;46.894;15.542;2022-10-04T12:56:05;1.83;;;1.73;;
11568;SDS011;5840;46.894;15.542;2022-10-04T12:58:50;2.13;;;1.97;;
11568;SDS011;5840;46.894;15.542;2022-10-04T13:01:29;2.30;;;1.80;;
11568;SDS011;5840;46.894;15.542;2022-10-04T13:04:18;2.20;;;2.00;;
11568;SDS011;5840;46.894;15.542;2022-10-04T13:06:57;2.70;;;1.80;;
11568;SDS011;5840;46.894;15.542;2022-10-04T13:09:34;2.10;;;2.00;;
11568;SDS011;5840;46.894;15.542;2022-10-04T13:12:13;1.80;;;1.70;;
11568;SDS011;5840;46.894;15.542;2022-10-04T13:14:55;1.90;;;1.80;;
11568;SDS011;5840;46.894;15.542;2022-10-04T13:17:45;2.23;;;2.10;;
11568;SDS011;5840;46.894;15.542;2022-10-04T13:20:24;1.93;;;1.80;;
11568;SDS011;5840;46.894;15.542;2022-10-04T13:23:07;2.07;;;1.93;;
11568;SDS011;5840;46.894;15.542;2022-10-04T13:25:54;1.80;;;1.70;;
11568;SDS011;5840;46.894;15.542;2022-10-04T13:28:43;1.90;;;1.80;;
11568;SDS011;5840;46.894;15.542;2022-10-04T13:31:19;2.30;;;2.10;;
11568;SDS011;5840;46.894;15.542;2022-10-04T13:33:51;2.20;;;2.00;;
11568;SDS011;5840;46.894;15.542;2022-10-04T13:36:27;2.30;;;2.00;;
11568;SDS011;5840;46.894;15.542;2022-10-04T13:39:12;2.23;;;1.77;;
11568;SDS011;5840;46.894;15.542;2022-10-04T13:41:51;1.80;;;1.70;;
11568;SDS011;5840;46.894;15.542;2022-10-04T13:44:35;1.77;;;1.67;;
11568;SDS011;5840;46.894;15.542;2022-10-04T13:47:20;2.47;;;2.27;;
11568;SDS011;5840;46.894;15.542;2022-10-04T13:50:20;2.00;;;1.70;;
11568;SDS011;5840;46.894;15.542;2022-10-04T13:53:00;1.93;;;1.73;;
11568;SDS011;5840;46.894;15.542;2022-10-04T13:55:58;2.00;;;1.90;;
11568;SDS011;5840;46.894;15.542;2022-10-04T13:58:47;2.10;;;2.00;;
11568;SDS011;5840;46.894;15.542;2022-10-04T14:01:30;2.07;;;1.97;;
11568;SDS011;5840;46.894;15.542;2022-10-04T14:04:40;1.90;;;1.70;;
11568;SDS011;5840;46.894;15.542;2022-10-04T14:07:33;2.60;;;1.90;;
11568;SDS011;5840;46.894;15.542;2022-10-04T14:10:22;2.90;;;1.80;;
11568;SDS011;5840;46.894;15.542;2022-10-04T14:13:25;2.10;;;1.90;;
11568;SDS011;5840;46.894;15.542;2022-10-04T14:19:33;9.67;;;2.50;;
11568;SDS011;5840;46.894;15.542;2022-10-04T14:22:34;4.40;;;2.20;;
11568;SDS011;5840;46.894;15.542;2022-10-04T14:25:47;1.90;;;1.80;;
11568;SDS011;5840;46.894;15.542;2022-10-04T14:28:37;9.87;;;3.00;;
11568;SDS011;5840;46.894;15.542;2022-10-04T14:31:47;4.63;;;1.73;;
11568;SDS011;5840;46.894;15.542;2022-10-04T14:37:36;3.37;;;2.00;;
11568;SDS011;5840;46.894;15.542;2022-10-04T14:40:29;2.00;;;1.90;;
11568;SDS011;5840;46.894;15.542;2022-10-04T14:43:21;2.67;;;2.17;;
11568;SDS011;5840;46.894;15.542;2022-10-04T14:46:14;4.77;;;2.47;;
11568;SDS011;5840;46.894;15.542;2022-10-04T14:48:59;4.23;;;2.40;;
11568;SDS011;5840;46.894;15.542;2022-10-04T14:51:39;2.10;;;1.90;;
11568;SDS011;5840;46.894;15.542;2022-10-04T14:54:15;1.97;;;1.87;;
11568;SDS011;5840;46.894;15.542;2022-10-04T14:56:55;2.53;;;2.33;;
11568;SDS011;5840;46.894;15.542;2022-10-04T14:59:30;2.10;;;2.00;;
11568;SDS011;5840;46.894;15.542;2022-10-04T15:02:34;2.10;;;2.00;;
11568;SDS011;5840;46.894;15.542;2022-10-04T15:05:30;4.63;;;2.30;;
11568;SDS011;5840;46.894;15.542;2022-10-04T15:08:12;2.60;;;2.30;;
11568;SDS011;5840;46.894;15.542;2022-10-04T15:10:56;3.60;;;2.30;;
11568;SDS011;5840;46.894;15.542;2022-10-04T15:13:27;2.50;;;2.17;;
11568;SDS011;5840;46.894;15.542;2022-10-04T15:16:08;2.50;;;2.23;;
11568;SDS011;5840;46.894;15.542;2022-10-04T15:18:50;2.80;;;2.47;;
11568;SDS011;5840;46.894;15.542;2022-10-04T15:21:29;2.63;;;2.50;;
11568;SDS011;5840;46.894;15.542;2022-10-04T15:24:12;3.33;;;2.43;;
11568;SDS011;5840;46.894;15.542;2022-10-04T15:26:54;2.50;;;2.40;;
11568;SDS011;5840;46.894;15.542;2022-10-04T15:29:50;4.07;;;2.20;;
11568;SDS011;5840;46.894;15.542;2022-10-04T15:32:28;9.83;;;3.10;;
11568;SDS011;5840;46.894;15.542;2022-10-04T15:35:05;7.47;;;3.20;;
11568;SDS011;5840;46.894;15.542;2022-10-04T15:37:49;24.47;;;3.97;;
11568;SDS011;5840;46.894;15.542;2022-10-04T15:40:23;23.03;;;4.03;;
11568;SDS011;5840;46.894;15.542;2022-10-04T15:43:16;12.37;;;3.90;;
11568;SDS011;5840;46.894;15.542;2022-10-04T15:45:50;18.37;;;5.90;;
11568;SDS011;5840;46.894;15.542;2022-10-04T15:48:48;12.87;;;4.57;;
11568;SDS011;5840;46.894;15.542;2022-10-04T15:51:30;38.13;;;5.70;;
11568;SDS011;5840;46.894;15.542;2022-10-04T15:54:10;24.37;;;5.03;;
11568;SDS011;5840;46.894;15.542;2022-10-04T15:56:45;17.10;;;15.43;;
11568;SDS011;5840;46.894;15.542;2022-10-04T15:59:25;4.47;;;3.50;;
11568;SDS011;5840;46.894;15.542;2022-10-04T16:05:18;2.33;;;2.10;;
11568;SDS011;5840;46.894;15.542;2022-10-04T16:07:55;2.67;;;2.43;;
11568;SDS011;5840;46.894;15.542;2022-10-04T16:10:32;7.87;;;3.13;;
11568;SDS011;5840;46.894;15.542;2022-10-04T16:13:29;3.80;;;2.80;;
11568;SDS011;5840;46.894;15.542;2022-10-04T16:19:31;2.60;;;2.40;;
11568;SDS011;5840;46.894;15.542;2022-10-04T16:22:10;5.53;;;2.93;;
11568;SDS011;5840;46.894;15.542;2022-10-04T16:24:45;3.03;;;2.70;;
11568;SDS011;5840;46.894;15.542;2022-10-04T16:30:24;3.40;;;3.10;;
11568;SDS011;5840;46.894;15.542;2022-10-04T16:32:59;2.97;;;2.77;;
11568;SDS011;5840;46.894;15.542;2022-10-04T16:35:34;3.87;;;3.27;;
11568;SDS011;5840;46.894;15.542;2022-10-04T16:38:13;6.67;;;3.73;;
11568;SDS011;5840;46.894;15.542;2022-10-04T16:40:55;6.47;;;3.10;;
11568;SDS011;5840;46.894;15.542;2022-10-04T16:43:31;6.53;;;3.27;;
11568;SDS011;5840;46.894;15.542;2022-10-04T16:46:04;4.03;;;3.07;;
11568;SDS011;5840;46.894;15.542;2022-10-04T16:48:36;3.20;;;2.73;;
11568;SDS011;5840;46.894;15.542;2022-10-04T16:57:19;4.27;;;2.73;;
11568;SDS011;5840;46.894;15.542;2022-10-04T16:59:52;3.17;;;2.97;;
11568;SDS011;5840;46.894;15.542;2022-10-04T17:02:32;2.70;;;2.50;;
11568;SDS011;5840;46.894;15.542;2022-10-04T17:05:20;4.93;;;2.93;;
11568;SDS011;5840;46.894;15.542;2022-10-04T17:08:05;3.33;;;2.60;;
11568;SDS011;5840;46.894;15.542;2022-10-04T17:11:10;4.50;;;4.10;;
11568;SDS011;5840;46.894;15.542;2022-10-04T17:14:06;5.00;;;3.80;;
11568;SDS011;5840;46.894;15.542;2022-10-04T17:17:03;4.43;;;3.20;;
11568;SDS011;5840;46.894;15.542;2022-10-04T17:19:41;3.67;;;2.90;;
11568;SDS011;5840;46.894;15.542;2022-10-04T17:22:17;3.83;;;3.47;;
11568;SDS011;5840;46.894;15.542;2022-10-04T17:24:58;3.93;;;3.57;;
11568;SDS011;5840;46.894;15.542;2022-10-04T17:27:45;3.60;;;3.40;;
11568;SDS011;5840;46.894;15.542;2022-10-04T17:30:17;3.83;;;3.53;;
11568;SDS011;5840;46.894;15.542;2022-10-04T17:32:49;5.57;;;3.73;;
11568;SDS011;5840;46.894;15.542;2022-10-04T17:35:45;3.47;;;3.17;;
11568;SDS011;5840;46.894;15.542;2022-10-04T17:38:34;5.60;;;5.17;;
11568;SDS011;5840;46.894;15.542;2022-10-04T17:41:13;3.63;;;3.10;;
11568;SDS011;5840;46.894;15.542;2022-10-04T17:43:59;3.57;;;3.27;;
11568;SDS011;5840;46.894;15.542;2022-10-04T17:46:45;2.93;;;2.73;;
11568;SDS011;5840;46.894;15.542;2022-10-04T17:49:16;3.77;;;3.37;;
11568;SDS011;5840;46.894;15.542;2022-10-04T17:52:11;3.43;;;2.70;;
11568;SDS011;5840;46.894;15.542;2022-10-04T17:55:11;3.87;;;3.20;;